BAW207 EGLL-KMIA
Flight info
| Callsign | BAW207 |
|---|---|
| Flight time | N/A |
| Altitude | 34000 |
| Route | CPT L9 BUCGO DCT FELCA DCT NICXI DCT BAKUR DCT NEBIN/M085F350 DCT 5330N02000W 5330N03000W 53N040W 52N050W DCT TUDEP/N0499F360 N522E ALLEX DCT FOXBO/N0494F380 DCT RIFLE DCT HEADI Q97 KALDA DCT BGBRD Q101 SKARP Y313 HOAGG BNFSH3 |
| Aircraft | A35K/H-SDE2E3GHIJ3J4J5LM1ORWXY/LB1D1 |
Departure
| Time | 2026-05-04 08:27 |
|---|---|
| Airport | London Heathrow Airport (EGLL) |
Arrival
| Time | N/A |
|---|---|
| Airport | Miami International Airport (KMIA) |
| Time | Latitude | Longitude | Altitude | Speed | Heading |
|---|---|---|---|---|---|
| 2026-05-04 07:34 | 51.47221 | -0.47730 | 61 ft | 0 kts | 90° |
| 2026-05-04 08:13 | 51.47221 | -0.47755 | 88 ft | 2 kts | 91° |
| 2026-05-04 08:13 | 51.47222 | -0.47782 | 90 ft | 2 kts | 93° |
| 2026-05-04 08:14 | 51.47223 | -0.47808 | 90 ft | 2 kts | 96° |
| 2026-05-04 08:14 | 51.47226 | -0.47834 | 89 ft | 2 kts | 103° |
| 2026-05-04 08:14 | 51.47231 | -0.47859 | 89 ft | 2 kts | 124° |
| 2026-05-04 08:16 | 51.47250 | -0.47875 | 89 ft | 0 kts | 179° |
| 2026-05-04 08:17 | 51.47246 | -0.47875 | 90 ft | 1 kts | 179° |
| 2026-05-04 08:17 | 51.47221 | -0.47875 | 91 ft | 6 kts | 180° |
| 2026-05-04 08:19 | 51.46656 | -0.47504 | 90 ft | 14 kts | 89° |
| 2026-05-04 08:19 | 51.46656 | -0.47350 | 91 ft | 14 kts | 89° |
| 2026-05-04 08:20 | 51.46657 | -0.47192 | 92 ft | 14 kts | 89° |
| 2026-05-04 08:20 | 51.46657 | -0.47029 | 91 ft | 15 kts | 89° |
| 2026-05-04 08:20 | 51.46658 | -0.46863 | 91 ft | 15 kts | 89° |
| 2026-05-04 08:20 | 51.46659 | -0.46687 | 91 ft | 16 kts | 89° |
| 2026-05-04 08:21 | 51.46659 | -0.46510 | 92 ft | 16 kts | 89° |
| 2026-05-04 08:21 | 51.46660 | -0.46320 | 91 ft | 21 kts | 90° |
| 2026-05-04 08:21 | 51.46660 | -0.46021 | 91 ft | 28 kts | 90° |
| 2026-05-04 08:21 | 51.46662 | -0.45708 | 87 ft | 28 kts | 89° |
| 2026-05-04 08:22 | 51.46662 | -0.45400 | 88 ft | 27 kts | 90° |
| 2026-05-04 08:22 | 51.46663 | -0.45098 | 88 ft | 27 kts | 89° |
| 2026-05-04 08:24 | 51.46572 | -0.43838 | 88 ft | 9 kts | 182° |
| 2026-05-04 08:24 | 51.46507 | -0.43859 | 91 ft | 9 kts | 218° |
| 2026-05-04 08:24 | 51.46498 | -0.43927 | 89 ft | 0 kts | 266° |
| 2026-05-04 08:25 | 51.46498 | -0.43928 | 86 ft | 1 kts | 266° |
| 2026-05-04 08:25 | 51.46495 | -0.44238 | 87 ft | 67 kts | 270° |
| 2026-05-04 08:25 | 51.46490 | -0.45400 | 90 ft | 142 kts | 270° |
| 2026-05-04 08:26 | 51.46486 | -0.47353 | 250 ft | 192 kts | 272° |
| 2026-05-04 08:27 | 51.45842 | -0.65947 | 4289 ft | 262 kts | 262° |
| 2026-05-04 08:28 | 51.45647 | -0.68895 | 4949 ft | 263 kts | 266° |
| 2026-05-04 08:28 | 51.45537 | -0.71803 | 5525 ft | 265 kts | 267° |
| 2026-05-04 08:28 | 51.45445 | -0.74769 | 6155 ft | 268 kts | 267° |
| 2026-05-04 08:28 | 51.45372 | -0.77761 | 6801 ft | 269 kts | 268° |
| 2026-05-04 08:29 | 51.45343 | -0.80759 | 7444 ft | 270 kts | 268° |
| 2026-05-04 08:29 | 51.45318 | -0.83791 | 8065 ft | 273 kts | 268° |
| 2026-05-04 08:29 | 51.45300 | -0.86835 | 8723 ft | 274 kts | 269° |
| 2026-05-04 08:31 | 51.47738 | -1.09324 | 12712 ft | 308 kts | 278° |
| 2026-05-04 08:33 | 51.55569 | -1.32067 | 14917 ft | 391 kts | 317° |
| 2026-05-04 08:33 | 51.57618 | -1.35014 | 15260 ft | 399 kts | 317° |
| 2026-05-04 08:35 | 51.68233 | -1.61764 | 18757 ft | 417 kts | 296° |
| 2026-05-04 08:35 | 51.69526 | -1.65957 | 19280 ft | 418 kts | 291° |
| 2026-05-04 08:35 | 51.70394 | -1.70403 | 19811 ft | 416 kts | 280° |
| 2026-05-04 08:35 | 51.70939 | -1.74987 | 20350 ft | 416 kts | 277° |
| 2026-05-04 08:37 | 51.72928 | -2.03150 | 23339 ft | 429 kts | 274° |
| 2026-05-04 08:37 | 51.73255 | -2.07942 | 23809 ft | 431 kts | 274° |
| 2026-05-04 08:37 | 51.73588 | -2.12767 | 24199 ft | 434 kts | 274° |
| 2026-05-04 08:38 | 51.73928 | -2.17627 | 24565 ft | 437 kts | 274° |
| 2026-05-04 08:38 | 51.74266 | -2.22509 | 24951 ft | 440 kts | 274° |
| 2026-05-04 08:38 | 51.74603 | -2.27439 | 25321 ft | 443 kts | 274° |
| 2026-05-04 08:40 | 51.76980 | -2.63000 | 27748 ft | 467 kts | 274° |
| 2026-05-04 08:40 | 51.77318 | -2.68149 | 28086 ft | 470 kts | 274° |
| 2026-05-04 08:40 | 51.77657 | -2.73419 | 28427 ft | 472 kts | 274° |
| 2026-05-04 08:41 | 51.77992 | -2.78719 | 28643 ft | 477 kts | 274° |
| 2026-05-04 08:41 | 51.78329 | -2.84074 | 28902 ft | 481 kts | 274° |
| 2026-05-04 08:41 | 51.78667 | -2.89465 | 29248 ft | 483 kts | 274° |
| 2026-05-04 08:41 | 51.79006 | -2.94879 | 29466 ft | 488 kts | 275° |
| 2026-05-04 08:42 | 51.79348 | -3.00374 | 29539 ft | 495 kts | 275° |
| 2026-05-04 08:42 | 51.79690 | -3.05915 | 29851 ft | 496 kts | 275° |
| 2026-05-04 08:42 | 51.80032 | -3.11484 | 30121 ft | 498 kts | 275° |
| 2026-05-04 08:42 | 51.80370 | -3.17057 | 30449 ft | 497 kts | 275° |
| 2026-05-04 08:43 | 51.80705 | -3.22608 | 30823 ft | 496 kts | 275° |
| 2026-05-04 08:43 | 51.81036 | -3.28157 | 31102 ft | 496 kts | 275° |
| 2026-05-04 08:43 | 51.81366 | -3.33712 | 31328 ft | 498 kts | 275° |
| 2026-05-04 08:43 | 51.81693 | -3.39281 | 31691 ft | 496 kts | 275° |
| 2026-05-04 08:44 | 51.82016 | -3.44836 | 31954 ft | 497 kts | 275° |
| 2026-05-04 08:44 | 51.82341 | -3.50414 | 32108 ft | 499 kts | 276° |
| 2026-05-04 08:46 | 51.87039 | -3.88774 | 33957 ft | 495 kts | 282° |
| 2026-05-04 08:46 | 51.88441 | -3.99769 | 34013 ft | 503 kts | 282° |
| 2026-05-04 08:47 | 51.89837 | -4.10845 | 34005 ft | 505 kts | 282° |
| 2026-05-04 08:47 | 51.91228 | -4.21981 | 34003 ft | 506 kts | 282° |
| 2026-05-04 08:47 | 51.91922 | -4.27572 | 34182 ft | 505 kts | 282° |
| 2026-05-04 08:48 | 51.92610 | -4.33139 | 34427 ft | 503 kts | 282° |
| 2026-05-04 08:48 | 51.93296 | -4.38697 | 34643 ft | 502 kts | 282° |
| 2026-05-04 08:48 | 51.93976 | -4.44243 | 34750 ft | 503 kts | 282° |
| 2026-05-04 08:49 | 51.95337 | -4.55400 | 34985 ft | 505 kts | 282° |
| 2026-05-04 08:50 | 52.00020 | -4.94570 | 35020 ft | 506 kts | 282° |
| 2026-05-04 08:51 | 52.01779 | -5.05588 | 35018 ft | 503 kts | 294° |
| 2026-05-04 08:51 | 52.04995 | -5.15633 | 35027 ft | 501 kts | 302° |
| 2026-05-04 08:52 | 52.08556 | -5.25367 | 35030 ft | 501 kts | 303° |
| 2026-05-04 08:52 | 52.12168 | -5.35081 | 35024 ft | 501 kts | 303° |
| 2026-05-04 08:54 | 52.25407 | -5.74980 | 35045 ft | 506 kts | 290° |
| 2026-05-04 08:55 | 52.27437 | -5.86002 | 35048 ft | 507 kts | 288° |
| 2026-05-04 08:55 | 52.29364 | -5.97082 | 35048 ft | 508 kts | 288° |
| 2026-05-04 09:01 | 52.49391 | -7.14788 | 35074 ft | 515 kts | 289° |
| 2026-05-04 09:01 | 52.51254 | -7.26138 | 35071 ft | 515 kts | 289° |
| 2026-05-04 09:02 | 52.53106 | -7.37496 | 35075 ft | 515 kts | 288° |
| 2026-05-04 09:02 | 52.54948 | -7.48861 | 35081 ft | 516 kts | 289° |
| 2026-05-04 09:03 | 52.56771 | -7.60194 | 35080 ft | 516 kts | 289° |
| 2026-05-04 09:03 | 52.58592 | -7.71598 | 35084 ft | 516 kts | 289° |
| 2026-05-04 09:04 | 52.60404 | -7.83017 | 35092 ft | 516 kts | 289° |
| 2026-05-04 09:04 | 52.62208 | -7.94456 | 35092 ft | 516 kts | 289° |
| 2026-05-04 09:05 | 52.63697 | -8.03966 | 35085 ft | 516 kts | 288° |
| 2026-05-04 09:05 | 52.65477 | -8.15413 | 35096 ft | 516 kts | 288° |
| 2026-05-04 09:06 | 52.67248 | -8.26871 | 35100 ft | 516 kts | 288° |
| 2026-05-04 09:08 | 52.74196 | -8.72659 | 35108 ft | 511 kts | 288° |
| 2026-05-04 09:08 | 52.75896 | -8.84050 | 35112 ft | 511 kts | 288° |
| 2026-05-04 09:09 | 52.77574 | -8.95379 | 35117 ft | 511 kts | 287° |
| 2026-05-04 09:09 | 52.79252 | -9.06793 | 35114 ft | 511 kts | 287° |
| 2026-05-04 09:10 | 52.80918 | -9.18219 | 35119 ft | 511 kts | 287° |
| 2026-05-04 09:10 | 52.82572 | -9.29647 | 35121 ft | 511 kts | 287° |
| 2026-05-04 09:11 | 52.84215 | -9.41081 | 35124 ft | 511 kts | 287° |
| 2026-05-04 09:11 | 52.85848 | -9.52517 | 35118 ft | 511 kts | 287° |
| 2026-05-04 09:12 | 52.87468 | -9.63953 | 35112 ft | 509 kts | 287° |
| 2026-05-04 09:14 | 52.93770 | -10.09297 | 35134 ft | 505 kts | 286° |
| 2026-05-04 09:14 | 52.95321 | -10.20665 | 35128 ft | 505 kts | 286° |
| 2026-05-04 09:15 | 52.96858 | -10.32029 | 35138 ft | 505 kts | 286° |
| 2026-05-04 09:15 | 52.98385 | -10.43401 | 35140 ft | 505 kts | 286° |
| 2026-05-04 09:17 | 53.05123 | -10.94689 | 35150 ft | 505 kts | 285° |
| 2026-05-04 09:18 | 53.06590 | -11.06106 | 35152 ft | 505 kts | 285° |
| 2026-05-04 09:18 | 53.08047 | -11.17537 | 35154 ft | 505 kts | 285° |
| 2026-05-04 09:19 | 53.09482 | -11.28898 | 35144 ft | 505 kts | 285° |
| 2026-05-04 09:19 | 53.10914 | -11.40322 | 35161 ft | 504 kts | 285° |
| 2026-05-04 09:20 | 53.12334 | -11.51735 | 35155 ft | 503 kts | 285° |
| 2026-05-04 09:20 | 53.13743 | -11.63170 | 35154 ft | 503 kts | 285° |
| 2026-05-04 09:21 | 53.15139 | -11.74588 | 35177 ft | 503 kts | 285° |
| 2026-05-04 09:21 | 53.16525 | -11.86018 | 35163 ft | 501 kts | 284° |
| 2026-05-04 09:22 | 53.17888 | -11.97378 | 35169 ft | 498 kts | 284° |
| 2026-05-04 09:22 | 53.19238 | -12.08707 | 35170 ft | 498 kts | 284° |
| 2026-05-04 09:23 | 53.20579 | -12.20043 | 35172 ft | 498 kts | 284° |
| 2026-05-04 09:23 | 53.21908 | -12.31387 | 35178 ft | 498 kts | 284° |
| 2026-05-04 09:25 | 53.27100 | -12.76708 | 35184 ft | 498 kts | 283° |
| 2026-05-04 09:26 | 53.28374 | -12.88084 | 35184 ft | 498 kts | 283° |
| 2026-05-04 09:26 | 53.29635 | -12.99444 | 35183 ft | 495 kts | 283° |
| 2026-05-04 09:27 | 53.30877 | -13.10731 | 35186 ft | 492 kts | 283° |
| 2026-05-04 09:27 | 53.32104 | -13.21987 | 35186 ft | 492 kts | 282° |
| 2026-05-04 09:28 | 53.33320 | -13.33257 | 35189 ft | 492 kts | 282° |
| 2026-05-04 09:28 | 53.34526 | -13.44530 | 35189 ft | 492 kts | 282° |
| 2026-05-04 09:29 | 53.35722 | -13.55809 | 35189 ft | 491 kts | 282° |
| 2026-05-04 09:29 | 53.36896 | -13.66999 | 35189 ft | 491 kts | 282° |
| 2026-05-04 09:30 | 53.38066 | -13.78256 | 35195 ft | 491 kts | 282° |
| 2026-05-04 09:30 | 53.39227 | -13.89524 | 35195 ft | 491 kts | 282° |
| 2026-05-04 09:31 | 53.40377 | -14.00797 | 35197 ft | 491 kts | 282° |
| 2026-05-04 09:31 | 53.41515 | -14.12067 | 35193 ft | 490 kts | 281° |
| 2026-05-04 09:32 | 53.42637 | -14.23292 | 35198 ft | 487 kts | 281° |
| 2026-05-04 09:34 | 53.47002 | -14.68038 | 35200 ft | 486 kts | 281° |
| 2026-05-04 09:34 | 53.48065 | -14.79229 | 35201 ft | 485 kts | 281° |
| 2026-05-04 09:35 | 53.49117 | -14.90410 | 35204 ft | 485 kts | 281° |
| 2026-05-04 09:35 | 53.49983 | -15.01657 | 35209 ft | 487 kts | 275° |
| 2026-05-04 09:37 | 53.50896 | -15.46949 | 35207 ft | 482 kts | 273° |
| 2026-05-04 09:38 | 53.51080 | -15.58212 | 35214 ft | 482 kts | 273° |
| 2026-05-04 09:38 | 53.51254 | -15.69461 | 35216 ft | 481 kts | 273° |
| 2026-05-04 09:39 | 53.51420 | -15.80702 | 35214 ft | 481 kts | 272° |
| 2026-05-04 09:39 | 53.51574 | -15.91923 | 35218 ft | 480 kts | 272° |
| 2026-05-04 09:40 | 53.51718 | -16.03147 | 35218 ft | 481 kts | 272° |
| 2026-05-04 09:40 | 53.51849 | -16.14366 | 35219 ft | 479 kts | 272° |
| 2026-05-04 09:42 | 53.52272 | -16.59181 | 35223 ft | 480 kts | 271° |
| 2026-05-04 09:43 | 53.52353 | -16.70391 | 35226 ft | 481 kts | 272° |
| 2026-05-04 09:43 | 53.52423 | -16.81619 | 35230 ft | 479 kts | 271° |
| 2026-05-04 09:44 | 53.52482 | -16.92790 | 35234 ft | 478 kts | 271° |
| 2026-05-04 09:46 | 53.52611 | -17.37223 | 35235 ft | 473 kts | 270° |
| 2026-05-04 09:46 | 53.52617 | -17.48178 | 35240 ft | 470 kts | 270° |
| 2026-05-04 09:47 | 53.52613 | -17.59180 | 35240 ft | 471 kts | 270° |
| 2026-05-04 09:49 | 53.52499 | -18.03227 | 35246 ft | 472 kts | 269° |
| 2026-05-04 09:51 | 53.52267 | -18.41607 | 35255 ft | 470 kts | 269° |
| 2026-05-04 09:51 | 53.52178 | -18.52608 | 35255 ft | 471 kts | 268° |
| 2026-05-04 09:52 | 53.52077 | -18.63595 | 35262 ft | 470 kts | 268° |
| 2026-05-04 09:52 | 53.51968 | -18.74596 | 35260 ft | 471 kts | 268° |
| 2026-05-04 09:53 | 53.51852 | -18.85582 | 35260 ft | 470 kts | 268° |
| 2026-05-04 09:53 | 53.51721 | -18.96567 | 35270 ft | 470 kts | 268° |
| 2026-05-04 09:54 | 53.51579 | -19.07521 | 35264 ft | 469 kts | 269° |
| 2026-05-04 09:54 | 53.51457 | -19.16648 | 35275 ft | 470 kts | 268° |
| 2026-05-04 09:55 | 53.51273 | -19.29409 | 35272 ft | 470 kts | 268° |
| 2026-05-04 09:55 | 53.51103 | -19.40398 | 35273 ft | 469 kts | 268° |
| 2026-05-04 09:56 | 53.50953 | -19.49504 | 35270 ft | 469 kts | 268° |
| 2026-05-04 09:56 | 53.50764 | -19.60492 | 35282 ft | 471 kts | 268° |
| 2026-05-04 09:57 | 53.50568 | -19.71458 | 35287 ft | 470 kts | 268° |
| 2026-05-04 09:57 | 53.50361 | -19.82464 | 35288 ft | 470 kts | 268° |
| 2026-05-04 09:58 | 53.50144 | -19.93425 | 35292 ft | 471 kts | 268° |
| 2026-05-04 09:58 | 53.50212 | -20.04425 | 35286 ft | 470 kts | 273° |
| 2026-05-04 10:00 | 53.51928 | -20.48130 | 35304 ft | 469 kts | 274° |
| 2026-05-04 10:04 | 53.54574 | -21.24826 | 35314 ft | 471 kts | 274° |
| 2026-05-04 10:04 | 53.54913 | -21.35813 | 35318 ft | 471 kts | 274° |
| 2026-05-04 10:05 | 53.55242 | -21.46806 | 35314 ft | 471 kts | 274° |
| 2026-05-04 10:05 | 53.55561 | -21.57792 | 35323 ft | 470 kts | 274° |
| 2026-05-04 10:06 | 53.55870 | -21.68784 | 35316 ft | 471 kts | 273° |
| 2026-05-04 10:06 | 53.56169 | -21.79768 | 35317 ft | 469 kts | 273° |
| 2026-05-04 10:08 | 53.57135 | -22.18213 | 35327 ft | 470 kts | 273° |
| 2026-05-04 10:08 | 53.57389 | -22.29207 | 35335 ft | 470 kts | 273° |
| 2026-05-04 10:09 | 53.57633 | -22.40211 | 35327 ft | 470 kts | 272° |
| 2026-05-04 10:09 | 53.57864 | -22.51123 | 35339 ft | 469 kts | 272° |
| 2026-05-04 10:10 | 53.58087 | -22.62102 | 35337 ft | 470 kts | 272° |
| 2026-05-04 10:10 | 53.58300 | -22.73097 | 35340 ft | 470 kts | 272° |
| 2026-05-04 10:11 | 53.58504 | -22.84083 | 35347 ft | 470 kts | 272° |
| 2026-05-04 10:11 | 53.58698 | -22.95067 | 35345 ft | 469 kts | 272° |
| 2026-05-04 10:12 | 53.58880 | -23.06047 | 35347 ft | 469 kts | 272° |
| 2026-05-04 10:12 | 53.59052 | -23.17021 | 35341 ft | 469 kts | 271° |
| 2026-05-04 10:13 | 53.59214 | -23.27989 | 35353 ft | 469 kts | 271° |
| 2026-05-04 10:13 | 53.59365 | -23.38896 | 35346 ft | 469 kts | 271° |
| 2026-05-04 10:14 | 53.59506 | -23.49863 | 35355 ft | 469 kts | 271° |
| 2026-05-04 10:16 | 53.59976 | -23.93750 | 35367 ft | 469 kts | 271° |
| 2026-05-04 10:16 | 53.60068 | -24.04737 | 35365 ft | 468 kts | 271° |
| 2026-05-04 10:17 | 53.60150 | -24.15686 | 35371 ft | 467 kts | 271° |
| 2026-05-04 10:19 | 53.60375 | -24.59466 | 35372 ft | 467 kts | 271° |
| 2026-05-04 10:19 | 53.60408 | -24.70389 | 35378 ft | 466 kts | 272° |
| 2026-05-04 10:20 | 53.60430 | -24.81214 | 35383 ft | 465 kts | 272° |
| 2026-05-04 10:20 | 53.60443 | -24.92108 | 35382 ft | 465 kts | 271° |
| 2026-05-04 10:21 | 53.60443 | -25.03007 | 35382 ft | 465 kts | 271° |
| 2026-05-04 10:21 | 53.60435 | -25.13902 | 35384 ft | 465 kts | 271° |
| 2026-05-04 10:22 | 53.60404 | -25.30202 | 35386 ft | 462 kts | 272° |
| 2026-05-04 10:23 | 53.60373 | -25.41005 | 35388 ft | 461 kts | 272° |
| 2026-05-04 10:25 | 53.60150 | -25.84122 | 35393 ft | 460 kts | 271° |
| 2026-05-04 10:25 | 53.60071 | -25.94878 | 35392 ft | 459 kts | 271° |
| 2026-05-04 10:26 | 53.59980 | -26.05635 | 35395 ft | 459 kts | 271° |
| 2026-05-04 10:26 | 53.59881 | -26.16392 | 35395 ft | 459 kts | 271° |
| 2026-05-04 10:27 | 53.59772 | -26.27087 | 35398 ft | 460 kts | 271° |
| 2026-05-04 10:27 | 53.59653 | -26.37848 | 35397 ft | 459 kts | 270° |
| 2026-05-04 10:28 | 53.59525 | -26.48605 | 35405 ft | 459 kts | 270° |
| 2026-05-04 10:28 | 53.59388 | -26.59341 | 35400 ft | 458 kts | 270° |
| 2026-05-04 10:29 | 53.59240 | -26.70062 | 35401 ft | 458 kts | 270° |
| 2026-05-04 10:29 | 53.59083 | -26.80779 | 35401 ft | 458 kts | 270° |
| 2026-05-04 10:30 | 53.58921 | -26.91429 | 35400 ft | 458 kts | 269° |
| 2026-05-04 10:30 | 53.58745 | -27.02168 | 35403 ft | 459 kts | 269° |
| 2026-05-04 10:31 | 53.58557 | -27.12907 | 35402 ft | 459 kts | 269° |
| 2026-05-04 10:32 | 53.57829 | -27.50501 | 35403 ft | 459 kts | 269° |
| 2026-05-04 10:33 | 53.57598 | -27.61237 | 35406 ft | 459 kts | 269° |
| 2026-05-04 10:33 | 53.57363 | -27.71976 | 35411 ft | 459 kts | 268° |
| 2026-05-04 10:34 | 53.57117 | -27.82632 | 35403 ft | 458 kts | 268° |
| 2026-05-04 10:34 | 53.56859 | -27.93329 | 35403 ft | 458 kts | 268° |
| 2026-05-04 10:35 | 53.56590 | -28.04041 | 35400 ft | 458 kts | 268° |
| 2026-05-04 10:35 | 53.56313 | -28.14746 | 35406 ft | 458 kts | 268° |
| 2026-05-04 10:36 | 53.56027 | -28.25452 | 35406 ft | 458 kts | 268° |
| 2026-05-04 10:36 | 53.55731 | -28.36158 | 35405 ft | 458 kts | 268° |
| 2026-05-04 10:37 | 53.55427 | -28.46869 | 35408 ft | 458 kts | 268° |
| 2026-05-04 10:37 | 53.55113 | -28.57571 | 35408 ft | 458 kts | 267° |
| 2026-05-04 10:39 | 53.53937 | -28.94974 | 35420 ft | 458 kts | 266° |
| 2026-05-04 10:40 | 53.53579 | -29.05660 | 35410 ft | 458 kts | 266° |
| 2026-05-04 10:40 | 53.53211 | -29.16345 | 35410 ft | 458 kts | 266° |
| 2026-05-04 10:41 | 53.52835 | -29.27034 | 35408 ft | 458 kts | 266° |
| 2026-05-04 10:41 | 53.52449 | -29.37724 | 35411 ft | 458 kts | 266° |
| 2026-05-04 10:42 | 53.52052 | -29.48405 | 35412 ft | 458 kts | 266° |
| 2026-05-04 10:42 | 53.51647 | -29.59086 | 35411 ft | 458 kts | 266° |
| 2026-05-04 10:43 | 53.51236 | -29.69691 | 35408 ft | 458 kts | 266° |
| 2026-05-04 10:45 | 53.49766 | -30.10619 | 35411 ft | 458 kts | 269° |
| 2026-05-04 10:45 | 53.49747 | -30.21320 | 35409 ft | 458 kts | 269° |
| 2026-05-04 10:46 | 53.49702 | -30.32017 | 35406 ft | 458 kts | 269° |
| 2026-05-04 10:46 | 53.49602 | -30.42705 | 35412 ft | 458 kts | 268° |
| 2026-05-04 10:47 | 53.49474 | -30.53409 | 35413 ft | 458 kts | 268° |
| 2026-05-04 10:47 | 53.49334 | -30.64098 | 35408 ft | 458 kts | 268° |
| 2026-05-04 10:49 | 53.48694 | -31.06862 | 35414 ft | 458 kts | 268° |
| 2026-05-04 10:50 | 53.48509 | -31.17551 | 35414 ft | 458 kts | 268° |
| 2026-05-04 10:52 | 53.47684 | -31.60197 | 35410 ft | 458 kts | 267° |
| 2026-05-04 10:52 | 53.47451 | -31.70875 | 35414 ft | 458 kts | 267° |
| 2026-05-04 10:54 | 53.46429 | -32.13579 | 35414 ft | 458 kts | 266° |
| 2026-05-04 10:56 | 53.45259 | -32.56221 | 35404 ft | 458 kts | 266° |
| 2026-05-04 10:57 | 53.44940 | -32.66898 | 35406 ft | 458 kts | 266° |
| 2026-05-04 10:57 | 53.44613 | -32.77570 | 35415 ft | 458 kts | 266° |
| 2026-05-04 10:58 | 53.44275 | -32.88256 | 35412 ft | 458 kts | 266° |
| 2026-05-04 10:58 | 53.43927 | -32.98929 | 35413 ft | 458 kts | 266° |
| 2026-05-04 10:59 | 53.43573 | -33.09606 | 35416 ft | 458 kts | 266° |
| 2026-05-04 10:59 | 53.43211 | -33.20282 | 35412 ft | 458 kts | 266° |
| 2026-05-04 11:00 | 53.42836 | -33.30949 | 35412 ft | 458 kts | 266° |
| 2026-05-04 11:02 | 53.41245 | -33.73494 | 35418 ft | 458 kts | 265° |
| 2026-05-04 11:05 | 53.37851 | -34.53356 | 35411 ft | 459 kts | 265° |
| 2026-05-04 11:06 | 53.37356 | -34.64039 | 35413 ft | 460 kts | 265° |
| 2026-05-04 11:06 | 53.36856 | -34.74631 | 35410 ft | 460 kts | 265° |
| 2026-05-04 11:10 | 53.33059 | -35.49329 | 35400 ft | 461 kts | 265° |
| 2026-05-04 11:12 | 53.30675 | -35.92035 | 35400 ft | 461 kts | 265° |
| 2026-05-04 11:12 | 53.30055 | -36.02707 | 35399 ft | 461 kts | 265° |
| 2026-05-04 11:13 | 53.29426 | -36.13370 | 35389 ft | 461 kts | 264° |
| 2026-05-04 11:13 | 53.28791 | -36.23968 | 35391 ft | 461 kts | 265° |
| 2026-05-04 11:14 | 53.28142 | -36.34630 | 35391 ft | 461 kts | 265° |
| 2026-05-04 11:16 | 53.25447 | -36.77311 | 35379 ft | 462 kts | 265° |
| 2026-05-04 11:16 | 53.24750 | -36.87982 | 35381 ft | 462 kts | 265° |
| 2026-05-04 11:17 | 53.24045 | -36.98635 | 35375 ft | 462 kts | 265° |
| 2026-05-04 11:19 | 53.21130 | -37.41143 | 35365 ft | 460 kts | 265° |
| 2026-05-04 11:19 | 53.20380 | -37.51734 | 35378 ft | 459 kts | 265° |
| 2026-05-04 11:20 | 53.19620 | -37.62321 | 35360 ft | 460 kts | 265° |
| 2026-05-04 11:20 | 53.18851 | -37.72899 | 35354 ft | 460 kts | 265° |
| 2026-05-04 11:22 | 53.15690 | -38.15063 | 35341 ft | 456 kts | 265° |
| 2026-05-04 11:23 | 53.14880 | -38.25546 | 35338 ft | 456 kts | 265° |
| 2026-05-04 11:25 | 53.11984 | -38.62064 | 35327 ft | 452 kts | 266° |
| 2026-05-04 11:25 | 53.11142 | -38.72424 | 35327 ft | 452 kts | 266° |
| 2026-05-04 11:27 | 53.07242 | -39.18999 | 35314 ft | 452 kts | 265° |
| 2026-05-04 11:28 | 53.06350 | -39.29333 | 35314 ft | 452 kts | 265° |
| 2026-05-04 11:28 | 53.05448 | -39.39665 | 35308 ft | 452 kts | 265° |
| 2026-05-04 11:29 | 53.04538 | -39.49993 | 35300 ft | 452 kts | 265° |
| 2026-05-04 11:29 | 53.03622 | -39.60324 | 35301 ft | 452 kts | 265° |
| 2026-05-04 11:33 | 52.98275 | -40.29840 | 35275 ft | 439 kts | 269° |
| 2026-05-04 11:33 | 52.97697 | -40.39927 | 35269 ft | 438 kts | 269° |
| 2026-05-04 11:34 | 52.97092 | -40.49997 | 35269 ft | 438 kts | 269° |
| 2026-05-04 11:34 | 52.96480 | -40.60008 | 35257 ft | 439 kts | 269° |
| 2026-05-04 11:35 | 52.95856 | -40.70083 | 35257 ft | 439 kts | 268° |
| 2026-05-04 11:35 | 52.95226 | -40.80147 | 35257 ft | 439 kts | 268° |
| 2026-05-04 11:36 | 52.94587 | -40.90200 | 35248 ft | 436 kts | 268° |
| 2026-05-04 11:36 | 52.93944 | -41.00180 | 35246 ft | 435 kts | 268° |
| 2026-05-04 11:37 | 52.93294 | -41.10154 | 35235 ft | 435 kts | 268° |
| 2026-05-04 11:37 | 52.92641 | -41.20051 | 35235 ft | 435 kts | 268° |
| 2026-05-04 11:38 | 52.91975 | -41.30012 | 35224 ft | 435 kts | 268° |
| 2026-05-04 11:38 | 52.91300 | -41.39970 | 35220 ft | 435 kts | 268° |
| 2026-05-04 11:39 | 52.90618 | -41.49909 | 35218 ft | 433 kts | 266° |
| 2026-05-04 11:41 | 52.88177 | -41.84496 | 35197 ft | 432 kts | 266° |
| 2026-05-04 11:41 | 52.87461 | -41.94369 | 35199 ft | 432 kts | 266° |
| 2026-05-04 11:42 | 52.86738 | -42.04232 | 35185 ft | 431 kts | 265° |
| 2026-05-04 11:42 | 52.86009 | -42.14065 | 35187 ft | 430 kts | 265° |
| 2026-05-04 11:43 | 52.85279 | -42.23806 | 35195 ft | 429 kts | 265° |
| 2026-05-04 11:43 | 52.84531 | -42.33666 | 35174 ft | 429 kts | 265° |
| 2026-05-04 11:44 | 52.83785 | -42.43399 | 35166 ft | 429 kts | 264° |
| 2026-05-04 11:44 | 52.83024 | -42.53203 | 35160 ft | 429 kts | 264° |
| 2026-05-04 11:45 | 52.82256 | -42.63001 | 35158 ft | 430 kts | 264° |
| 2026-05-04 11:45 | 52.81480 | -42.72800 | 35146 ft | 430 kts | 264° |
| 2026-05-04 11:46 | 52.80695 | -42.82606 | 35145 ft | 430 kts | 264° |
| 2026-05-04 11:46 | 52.79901 | -42.92404 | 35145 ft | 430 kts | 264° |
| 2026-05-04 11:47 | 52.79099 | -43.02203 | 35138 ft | 430 kts | 264° |
| 2026-05-04 11:47 | 52.78290 | -43.11993 | 35129 ft | 430 kts | 264° |
| 2026-05-04 11:48 | 52.77472 | -43.21782 | 35107 ft | 430 kts | 263° |
| 2026-05-04 11:48 | 52.76652 | -43.31518 | 35122 ft | 432 kts | 262° |
| 2026-05-04 11:49 | 52.75813 | -43.41362 | 35122 ft | 433 kts | 262° |
| 2026-05-04 11:49 | 52.74965 | -43.51206 | 35105 ft | 433 kts | 262° |
| 2026-05-04 11:50 | 52.74110 | -43.61037 | 35102 ft | 433 kts | 262° |
| 2026-05-04 11:50 | 52.73246 | -43.70877 | 35096 ft | 433 kts | 262° |
| 2026-05-04 11:51 | 52.72375 | -43.80700 | 35080 ft | 433 kts | 261° |
| 2026-05-04 11:51 | 52.71500 | -43.90464 | 35088 ft | 433 kts | 261° |
| 2026-05-04 11:52 | 52.70612 | -44.00297 | 35080 ft | 433 kts | 261° |
| 2026-05-04 11:52 | 52.69715 | -44.10122 | 35080 ft | 433 kts | 261° |
| 2026-05-04 11:53 | 52.68811 | -44.19944 | 35067 ft | 434 kts | 261° |
| 2026-05-04 11:53 | 52.67896 | -44.29785 | 35065 ft | 436 kts | 261° |
| 2026-05-04 11:55 | 52.64052 | -44.70152 | 35045 ft | 448 kts | 259° |
| 2026-05-04 11:56 | 52.63065 | -44.80279 | 35047 ft | 448 kts | 259° |
| 2026-05-04 11:56 | 52.62075 | -44.90346 | 35025 ft | 448 kts | 259° |
| 2026-05-04 11:57 | 52.61070 | -45.00464 | 35026 ft | 448 kts | 259° |
| 2026-05-04 11:57 | 52.60056 | -45.10587 | 35017 ft | 448 kts | 259° |
| 2026-05-04 11:58 | 52.59036 | -45.20698 | 35019 ft | 448 kts | 259° |
| 2026-05-04 11:58 | 52.58005 | -45.30815 | 35011 ft | 448 kts | 259° |
| 2026-05-04 11:59 | 52.56963 | -45.40946 | 34996 ft | 451 kts | 259° |
| 2026-05-04 11:59 | 52.55913 | -45.51066 | 34996 ft | 452 kts | 259° |
| 2026-05-04 12:00 | 52.54847 | -45.61251 | 34986 ft | 453 kts | 258° |
| 2026-05-04 12:00 | 52.53769 | -45.71453 | 34988 ft | 453 kts | 258° |
| 2026-05-04 12:01 | 52.52684 | -45.81652 | 34976 ft | 453 kts | 258° |
| 2026-05-04 12:02 | 52.48814 | -46.17326 | 34958 ft | 455 kts | 257° |
| 2026-05-04 12:03 | 52.47683 | -46.27553 | 34949 ft | 456 kts | 257° |
| 2026-05-04 12:03 | 52.46542 | -46.37784 | 34944 ft | 456 kts | 257° |
| 2026-05-04 12:04 | 52.45391 | -46.48019 | 34933 ft | 456 kts | 257° |
| 2026-05-04 12:04 | 52.44232 | -46.58249 | 34933 ft | 456 kts | 257° |
| 2026-05-04 12:05 | 52.43065 | -46.68467 | 34924 ft | 456 kts | 257° |
| 2026-05-04 12:05 | 52.41886 | -46.78695 | 34919 ft | 458 kts | 256° |
| 2026-05-04 12:06 | 52.40692 | -46.88981 | 34919 ft | 461 kts | 256° |
| 2026-05-04 12:06 | 52.39482 | -46.99315 | 34910 ft | 462 kts | 256° |
| 2026-05-04 12:07 | 52.38262 | -47.09647 | 34899 ft | 462 kts | 256° |
| 2026-05-04 12:07 | 52.37043 | -47.19909 | 34884 ft | 462 kts | 256° |
| 2026-05-04 12:08 | 52.35798 | -47.30298 | 34888 ft | 462 kts | 255° |
| 2026-05-04 12:08 | 52.34558 | -47.40567 | 34871 ft | 463 kts | 255° |
| 2026-05-04 12:09 | 52.33299 | -47.50897 | 34865 ft | 464 kts | 255° |
| 2026-05-04 12:09 | 52.32031 | -47.61237 | 34865 ft | 464 kts | 255° |
| 2026-05-04 12:10 | 52.30755 | -47.71564 | 34868 ft | 464 kts | 255° |
| 2026-05-04 12:10 | 52.29465 | -47.81911 | 34861 ft | 466 kts | 255° |
| 2026-05-04 12:11 | 52.28163 | -47.92289 | 34844 ft | 466 kts | 254° |
| 2026-05-04 12:11 | 52.26855 | -48.02641 | 34848 ft | 465 kts | 254° |
| 2026-05-04 12:12 | 52.25537 | -48.12984 | 34825 ft | 465 kts | 254° |
| 2026-05-04 12:12 | 52.24211 | -48.23323 | 34825 ft | 465 kts | 254° |
| 2026-05-04 12:14 | 52.18811 | -48.64615 | 34799 ft | 467 kts | 253° |
| 2026-05-04 12:15 | 52.17441 | -48.74904 | 34790 ft | 468 kts | 253° |
| 2026-05-04 12:15 | 52.16044 | -48.85332 | 34782 ft | 468 kts | 252° |
| 2026-05-04 12:16 | 52.14655 | -48.95622 | 34779 ft | 468 kts | 252° |
| 2026-05-04 12:16 | 52.13247 | -49.05973 | 34769 ft | 468 kts | 251° |
| 2026-05-04 12:17 | 52.11827 | -49.16343 | 34763 ft | 469 kts | 251° |
| 2026-05-04 12:17 | 52.10403 | -49.26690 | 34752 ft | 469 kts | 251° |
| 2026-05-04 12:18 | 52.08967 | -49.37022 | 34749 ft | 468 kts | 251° |
| 2026-05-04 12:18 | 52.07520 | -49.47359 | 34738 ft | 470 kts | 251° |
| 2026-05-04 12:19 | 52.06067 | -49.57666 | 34756 ft | 472 kts | 250° |
| 2026-05-04 12:19 | 52.04588 | -49.68085 | 34724 ft | 475 kts | 250° |
| 2026-05-04 12:20 | 52.03087 | -49.78609 | 34720 ft | 475 kts | 250° |
| 2026-05-04 12:20 | 52.01587 | -49.89056 | 34705 ft | 475 kts | 250° |
| 2026-05-04 12:21 | 52.00015 | -49.99383 | 34709 ft | 471 kts | 245° |
| 2026-05-04 12:21 | 51.97792 | -50.09314 | 34712 ft | 468 kts | 243° |
| 2026-05-04 12:22 | 51.95423 | -50.19160 | 34688 ft | 468 kts | 242° |
| 2026-05-04 12:22 | 51.93028 | -50.28968 | 34686 ft | 468 kts | 242° |
| 2026-05-04 12:23 | 51.91035 | -50.37127 | 34718 ft | 469 kts | 242° |
| 2026-05-04 12:23 | 51.88865 | -50.46001 | 34686 ft | 472 kts | 242° |
| 2026-05-04 12:24 | 51.86449 | -50.55855 | 34672 ft | 473 kts | 242° |
| 2026-05-04 12:24 | 51.84018 | -50.65737 | 34667 ft | 473 kts | 241° |
| 2026-05-04 12:25 | 51.81577 | -50.75613 | 34655 ft | 473 kts | 241° |
| 2026-05-04 12:25 | 51.79128 | -50.85473 | 34656 ft | 473 kts | 241° |
| 2026-05-04 12:26 | 51.76670 | -50.95322 | 34642 ft | 473 kts | 241° |
| 2026-05-04 12:26 | 51.74205 | -51.05156 | 34636 ft | 473 kts | 241° |
| 2026-05-04 12:27 | 51.71725 | -51.15004 | 34626 ft | 474 kts | 240° |
| 2026-05-04 12:27 | 51.69233 | -51.24853 | 34600 ft | 475 kts | 240° |
| 2026-05-04 12:28 | 51.66733 | -51.34706 | 34616 ft | 475 kts | 240° |
| 2026-05-04 12:28 | 51.64225 | -51.44541 | 34610 ft | 475 kts | 240° |
| 2026-05-04 12:29 | 51.61709 | -51.54352 | 34635 ft | 479 kts | 239° |
| 2026-05-04 12:29 | 51.59151 | -51.64284 | 34581 ft | 481 kts | 239° |
| 2026-05-04 12:30 | 51.56582 | -51.74230 | 34584 ft | 482 kts | 239° |
| 2026-05-04 12:30 | 51.54004 | -51.84167 | 34573 ft | 482 kts | 239° |
| 2026-05-04 12:31 | 51.51417 | -51.94089 | 34567 ft | 481 kts | 239° |
| 2026-05-04 12:31 | 51.48822 | -52.03994 | 34563 ft | 482 kts | 238° |
| 2026-05-04 12:32 | 51.44905 | -52.18875 | 34546 ft | 483 kts | 238° |
| 2026-05-04 12:33 | 51.42281 | -52.28787 | 34541 ft | 483 kts | 238° |
| 2026-05-04 12:33 | 51.39650 | -52.38681 | 34528 ft | 483 kts | 238° |
| 2026-05-04 12:34 | 51.37009 | -52.48569 | 34575 ft | 484 kts | 238° |
| 2026-05-04 12:34 | 51.34332 | -52.58530 | 34524 ft | 490 kts | 238° |
| 2026-05-04 12:35 | 51.31647 | -52.68497 | 34520 ft | 491 kts | 238° |
| 2026-05-04 12:35 | 51.28939 | -52.78517 | 34497 ft | 491 kts | 238° |
| 2026-05-04 12:36 | 51.26222 | -52.88526 | 34497 ft | 491 kts | 238° |
| 2026-05-04 12:36 | 51.23491 | -52.98530 | 34496 ft | 493 kts | 238° |
| 2026-05-04 12:37 | 51.20738 | -53.08562 | 34484 ft | 494 kts | 238° |
| 2026-05-04 12:37 | 51.17974 | -53.18604 | 34476 ft | 495 kts | 237° |
| 2026-05-04 12:38 | 51.14821 | -53.28229 | 34518 ft | 488 kts | 231° |
| 2026-05-04 12:38 | 51.11373 | -53.37525 | 34591 ft | 488 kts | 231° |
| 2026-05-04 12:39 | 51.07880 | -53.46732 | 34594 ft | 490 kts | 230° |
| 2026-05-04 12:39 | 51.04351 | -53.56012 | 34632 ft | 490 kts | 230° |
| 2026-05-04 12:40 | 51.00823 | -53.65282 | 34664 ft | 492 kts | 231° |
| 2026-05-04 12:40 | 50.97264 | -53.74606 | 34688 ft | 494 kts | 231° |
| 2026-05-04 12:41 | 50.93711 | -53.83887 | 34690 ft | 495 kts | 231° |
| 2026-05-04 12:41 | 50.90125 | -53.93222 | 34723 ft | 496 kts | 231° |
| 2026-05-04 12:42 | 50.86531 | -54.02547 | 34761 ft | 496 kts | 231° |
| 2026-05-04 12:42 | 50.82927 | -54.11859 | 34843 ft | 496 kts | 231° |
| 2026-05-04 12:43 | 50.79312 | -54.21164 | 34840 ft | 497 kts | 231° |
| 2026-05-04 12:43 | 50.75706 | -54.30413 | 34852 ft | 497 kts | 231° |
| 2026-05-04 12:44 | 50.72051 | -54.39758 | 34886 ft | 497 kts | 231° |
| 2026-05-04 12:44 | 50.68432 | -54.48972 | 34918 ft | 497 kts | 231° |
| 2026-05-04 12:45 | 50.64775 | -54.58250 | 34969 ft | 499 kts | 231° |
| 2026-05-04 12:45 | 50.61104 | -54.67533 | 34970 ft | 500 kts | 231° |
| 2026-05-04 12:46 | 50.57422 | -54.76812 | 34972 ft | 500 kts | 231° |
| 2026-05-04 12:46 | 50.53733 | -54.86077 | 34966 ft | 500 kts | 231° |
| 2026-05-04 12:47 | 50.50037 | -54.95327 | 34966 ft | 500 kts | 231° |
| 2026-05-04 12:47 | 50.46328 | -55.04573 | 34971 ft | 500 kts | 231° |
| 2026-05-04 12:48 | 50.42638 | -55.13739 | 34970 ft | 500 kts | 231° |
| 2026-05-04 12:48 | 50.38919 | -55.22945 | 34992 ft | 500 kts | 231° |
| 2026-05-04 12:49 | 50.35186 | -55.32143 | 35035 ft | 500 kts | 231° |
| 2026-05-04 12:49 | 50.31448 | -55.41340 | 35030 ft | 501 kts | 231° |
| 2026-05-04 12:50 | 50.27695 | -55.50534 | 35031 ft | 501 kts | 231° |
| 2026-05-04 12:50 | 50.23932 | -55.59716 | 35020 ft | 501 kts | 231° |
| 2026-05-04 12:51 | 50.20171 | -55.68871 | 35079 ft | 501 kts | 231° |
| 2026-05-04 12:51 | 50.16394 | -55.78024 | 35078 ft | 501 kts | 231° |
| 2026-05-04 12:52 | 50.12609 | -55.87167 | 35075 ft | 502 kts | 231° |
| 2026-05-04 12:52 | 50.08818 | -55.96292 | 35075 ft | 502 kts | 231° |
| 2026-05-04 12:53 | 50.05018 | -56.05403 | 35103 ft | 502 kts | 231° |
| 2026-05-04 12:53 | 50.01240 | -56.14438 | 35100 ft | 502 kts | 231° |
| 2026-05-04 12:54 | 49.97424 | -56.23531 | 35109 ft | 502 kts | 231° |
| 2026-05-04 12:54 | 49.93585 | -56.32639 | 35032 ft | 505 kts | 231° |
| 2026-05-04 12:55 | 49.89735 | -56.41750 | 35078 ft | 504 kts | 232° |
| 2026-05-04 12:55 | 49.85885 | -56.50831 | 35080 ft | 504 kts | 232° |
| 2026-05-04 12:56 | 49.82027 | -56.59894 | 35075 ft | 504 kts | 232° |
| 2026-05-04 12:56 | 49.78159 | -56.68950 | 35093 ft | 504 kts | 232° |
| 2026-05-04 12:57 | 49.74296 | -56.77968 | 35154 ft | 502 kts | 232° |
| 2026-05-04 12:57 | 49.70432 | -56.86957 | 35152 ft | 502 kts | 232° |
| 2026-05-04 12:58 | 49.66562 | -56.95928 | 35147 ft | 502 kts | 232° |
| 2026-05-04 12:58 | 49.62710 | -57.04825 | 35157 ft | 502 kts | 232° |
| 2026-05-04 12:59 | 49.58828 | -57.13762 | 35172 ft | 501 kts | 232° |
| 2026-05-04 12:59 | 49.54942 | -57.22683 | 35173 ft | 501 kts | 232° |
| 2026-05-04 13:00 | 49.51051 | -57.31581 | 35162 ft | 501 kts | 232° |
| 2026-05-04 13:00 | 49.47153 | -57.40463 | 35169 ft | 501 kts | 232° |
| 2026-05-04 13:01 | 49.43252 | -57.49325 | 35170 ft | 501 kts | 232° |
| 2026-05-04 13:01 | 49.39329 | -57.58204 | 35063 ft | 504 kts | 232° |
| 2026-05-04 13:02 | 49.35416 | -57.67037 | 35052 ft | 504 kts | 232° |
| 2026-05-04 13:02 | 49.31467 | -57.75917 | 35068 ft | 504 kts | 232° |
| 2026-05-04 13:03 | 49.27513 | -57.84781 | 35059 ft | 504 kts | 232° |
| 2026-05-04 13:03 | 49.23543 | -57.93652 | 35056 ft | 504 kts | 232° |
| 2026-05-04 13:04 | 49.19571 | -58.02498 | 35054 ft | 504 kts | 232° |
| 2026-05-04 13:04 | 49.15590 | -58.11334 | 35064 ft | 505 kts | 232° |
| 2026-05-04 13:05 | 49.11604 | -58.20153 | 35067 ft | 505 kts | 232° |
| 2026-05-04 13:05 | 49.07610 | -58.28963 | 35064 ft | 505 kts | 232° |
| 2026-05-04 13:06 | 49.03608 | -58.37757 | 35060 ft | 505 kts | 232° |
| 2026-05-04 13:06 | 48.99596 | -58.46547 | 35061 ft | 505 kts | 232° |
| 2026-05-04 13:07 | 48.95580 | -58.55317 | 35051 ft | 505 kts | 232° |
| 2026-05-04 13:07 | 48.91582 | -58.64017 | 35046 ft | 505 kts | 232° |
| 2026-05-04 13:08 | 48.87553 | -58.72758 | 35061 ft | 505 kts | 232° |
| 2026-05-04 13:08 | 48.83502 | -58.81518 | 34997 ft | 507 kts | 232° |
| 2026-05-04 13:09 | 48.79444 | -58.90263 | 34995 ft | 507 kts | 232° |
| 2026-05-04 13:09 | 48.75378 | -58.98998 | 34997 ft | 507 kts | 232° |
| 2026-05-04 13:10 | 48.71308 | -59.07712 | 34989 ft | 507 kts | 232° |
| 2026-05-04 13:10 | 48.67233 | -59.16410 | 35005 ft | 506 kts | 232° |
| 2026-05-04 13:11 | 48.63157 | -59.25084 | 35011 ft | 506 kts | 232° |
| 2026-05-04 13:11 | 48.59072 | -59.33747 | 35018 ft | 506 kts | 232° |
| 2026-05-04 13:12 | 48.54978 | -59.42401 | 35027 ft | 506 kts | 232° |
| 2026-05-04 13:12 | 48.50910 | -59.50973 | 35027 ft | 506 kts | 232° |
| 2026-05-04 13:13 | 48.47472 | -59.58196 | 35029 ft | 506 kts | 232° |
| 2026-05-04 13:13 | 48.42702 | -59.68186 | 35037 ft | 505 kts | 232° |
| 2026-05-04 13:14 | 48.39252 | -59.75388 | 35062 ft | 505 kts | 233° |
| 2026-05-04 13:14 | 48.35139 | -59.83952 | 35075 ft | 505 kts | 232° |
| 2026-05-04 13:15 | 48.31021 | -59.92498 | 35047 ft | 506 kts | 232° |
| 2026-05-04 13:15 | 48.26910 | -60.01001 | 35045 ft | 506 kts | 232° |
| 2026-05-04 13:16 | 48.22767 | -60.09544 | 35078 ft | 506 kts | 233° |
| 2026-05-04 13:16 | 48.18619 | -60.18070 | 35084 ft | 506 kts | 232° |
| 2026-05-04 13:17 | 48.14469 | -60.26575 | 35086 ft | 506 kts | 232° |
| 2026-05-04 13:17 | 48.10307 | -60.35078 | 35098 ft | 505 kts | 232° |
| 2026-05-04 13:18 | 48.06152 | -60.43540 | 35173 ft | 503 kts | 233° |
| 2026-05-04 13:18 | 48.02005 | -60.51960 | 35180 ft | 502 kts | 233° |
| 2026-05-04 13:19 | 47.97859 | -60.60352 | 35197 ft | 502 kts | 233° |
| 2026-05-04 13:19 | 47.93732 | -60.68678 | 35211 ft | 502 kts | 233° |
| 2026-05-04 13:20 | 47.89592 | -60.77006 | 35212 ft | 499 kts | 233° |
| 2026-05-04 13:20 | 47.85463 | -60.85287 | 35219 ft | 498 kts | 233° |
| 2026-05-04 13:21 | 47.81322 | -60.93566 | 35231 ft | 498 kts | 232° |
| 2026-05-04 13:21 | 47.77183 | -61.01816 | 35239 ft | 498 kts | 233° |
| 2026-05-04 13:22 | 47.73047 | -61.10037 | 35241 ft | 496 kts | 233° |
| 2026-05-04 13:22 | 47.68904 | -61.18244 | 35248 ft | 496 kts | 233° |
| 2026-05-04 13:23 | 47.64784 | -61.26383 | 35251 ft | 496 kts | 233° |
| 2026-05-04 13:23 | 47.60638 | -61.34545 | 35259 ft | 493 kts | 233° |
| 2026-05-04 13:24 | 47.56520 | -61.42631 | 35272 ft | 491 kts | 233° |
| 2026-05-04 13:24 | 47.52407 | -61.50684 | 35280 ft | 490 kts | 233° |
| 2026-05-04 13:25 | 47.46225 | -61.62745 | 35297 ft | 491 kts | 233° |
| 2026-05-04 13:25 | 47.42091 | -61.70779 | 35299 ft | 491 kts | 233° |
| 2026-05-04 13:26 | 47.37955 | -61.78795 | 35297 ft | 491 kts | 233° |
| 2026-05-04 13:26 | 47.33806 | -61.86811 | 35299 ft | 491 kts | 233° |
| 2026-05-04 13:27 | 47.29662 | -61.94795 | 35352 ft | 488 kts | 233° |
| 2026-05-04 13:27 | 47.25540 | -62.02714 | 35375 ft | 486 kts | 233° |
| 2026-05-04 13:28 | 47.21418 | -62.10613 | 35377 ft | 487 kts | 233° |
| 2026-05-04 13:28 | 47.17282 | -62.18515 | 35391 ft | 488 kts | 233° |
| 2026-05-04 13:29 | 47.13169 | -62.26348 | 35409 ft | 487 kts | 233° |
| 2026-05-04 13:29 | 47.09017 | -62.34232 | 35415 ft | 487 kts | 233° |
| 2026-05-04 13:30 | 47.04868 | -62.42091 | 35427 ft | 487 kts | 233° |
| 2026-05-04 13:30 | 47.00715 | -62.49931 | 35433 ft | 486 kts | 233° |
| 2026-05-04 13:31 | 46.96568 | -62.57737 | 35437 ft | 485 kts | 233° |
| 2026-05-04 13:31 | 46.92419 | -62.65527 | 35447 ft | 485 kts | 233° |
| 2026-05-04 13:32 | 46.88268 | -62.73301 | 35465 ft | 485 kts | 233° |
| 2026-05-04 13:32 | 46.84132 | -62.81025 | 35464 ft | 485 kts | 233° |
| 2026-05-04 13:33 | 46.79972 | -62.88770 | 35475 ft | 485 kts | 233° |
| 2026-05-04 13:33 | 46.75797 | -62.96523 | 35483 ft | 485 kts | 233° |
| 2026-05-04 13:34 | 46.71625 | -63.04248 | 35480 ft | 485 kts | 233° |
| 2026-05-04 13:34 | 46.67443 | -63.11972 | 35501 ft | 486 kts | 233° |
| 2026-05-04 13:35 | 46.61129 | -63.23593 | 35505 ft | 488 kts | 233° |
| 2026-05-04 13:36 | 46.56936 | -63.31287 | 35517 ft | 488 kts | 233° |
| 2026-05-04 13:36 | 46.52710 | -63.39011 | 35515 ft | 488 kts | 232° |
| 2026-05-04 13:37 | 46.48483 | -63.46711 | 35525 ft | 487 kts | 233° |
| 2026-05-04 13:37 | 46.44255 | -63.54395 | 35540 ft | 487 kts | 232° |
| 2026-05-04 13:38 | 46.40025 | -63.62067 | 35541 ft | 487 kts | 233° |
| 2026-05-04 13:38 | 46.35793 | -63.69721 | 35552 ft | 487 kts | 233° |
| 2026-05-04 13:39 | 46.31554 | -63.77369 | 35558 ft | 487 kts | 232° |
| 2026-05-04 13:39 | 46.27306 | -63.85011 | 35559 ft | 487 kts | 232° |
| 2026-05-04 13:40 | 46.23088 | -63.92575 | 35576 ft | 487 kts | 232° |
| 2026-05-04 13:40 | 46.18832 | -64.00188 | 35569 ft | 487 kts | 232° |
| 2026-05-04 13:41 | 46.14569 | -64.07793 | 35579 ft | 488 kts | 232° |
| 2026-05-04 13:41 | 46.10297 | -64.15393 | 35582 ft | 488 kts | 232° |
| 2026-05-04 13:42 | 46.03888 | -64.26754 | 35601 ft | 486 kts | 232° |
| 2026-05-04 13:42 | 45.99616 | -64.34302 | 35605 ft | 486 kts | 232° |
| 2026-05-04 13:43 | 45.95337 | -64.41840 | 35617 ft | 486 kts | 232° |
| 2026-05-04 13:43 | 45.91089 | -64.49306 | 35620 ft | 486 kts | 232° |
| 2026-05-04 13:44 | 45.86807 | -64.56811 | 35625 ft | 486 kts | 232° |
| 2026-05-04 13:44 | 45.82519 | -64.64306 | 35635 ft | 486 kts | 232° |
| 2026-05-04 13:45 | 45.78227 | -64.71787 | 35646 ft | 486 kts | 232° |
| 2026-05-04 13:45 | 45.73929 | -64.79260 | 35658 ft | 486 kts | 232° |
| 2026-05-04 13:46 | 45.69628 | -64.86716 | 35672 ft | 486 kts | 232° |
| 2026-05-04 13:46 | 45.65324 | -64.94160 | 35676 ft | 485 kts | 232° |
| 2026-05-04 13:47 | 45.61017 | -65.01592 | 35677 ft | 485 kts | 232° |
| 2026-05-04 13:47 | 45.56710 | -65.08999 | 35695 ft | 485 kts | 232° |
| 2026-05-04 13:48 | 45.52394 | -65.16403 | 35702 ft | 485 kts | 232° |
| 2026-05-04 13:48 | 45.48072 | -65.23798 | 35702 ft | 485 kts | 232° |
| 2026-05-04 13:49 | 45.43782 | -65.31119 | 35706 ft | 484 kts | 232° |
| 2026-05-04 13:49 | 45.39470 | -65.38459 | 35723 ft | 483 kts | 232° |
| 2026-05-04 13:50 | 45.35158 | -65.45780 | 35724 ft | 483 kts | 232° |
| 2026-05-04 13:50 | 45.30839 | -65.53094 | 35730 ft | 482 kts | 232° |